Toyooka, Japan

5:12 PM JST on August 30, 2014 (GMT +0900)
Tajima | Change Station
CLOSE
Current Station
Airport
Location: Tajima,
Elevation: 689 ft
Nearby Weather Stations

Elev 689 ft 35.51 °N, 134.79 °E | Updated 12 minutes ago

Mostly Cloudy
Mostly Cloudy
72 °F
Feels Like 72 °F
N
7
Wind Variable Wind from North

Today
High -- | Low -- °F
--% Chance of Precip.
Yesterday
High -- | Low -- °F
Precip. -- in
5:30 AM 6:31 PM
Waxing Crescent, 20% visible
Pressure 29.92 in
Visibility 6.2 miles
Clouds Few 500 ft
Scattered Clouds 1500 ft
Mostly Cloudy 3500 ft
Dew Point 63 °F
Humidity 73%
Rainfall 0.00 in
Snow Depth Not available.
UV 1 out of 12
Pollen Not available.
Air Quality Not available.
Flu Activity Not available.
METAR RJBT 300800Z 36006KT 9999 VCSH FEW005 SCT015 BKN035 22/17 Q1013

More Conditions Fewer Conditions

Pressure 29.92 in
Visibility 6.2 miles
Clouds Few 500 ft
Scattered Clouds 1500 ft
Mostly Cloudy 3500 ft
Dew Point 63 °F
Humidity 73%
Rainfall 0.00 in
Snow Depth Not available.
UV 1 out of 12
Pollen Not available.
Air Quality Not available.
Flu Activity Not available.
METAR RJBT 300800Z 36006KT 9999 VCSH FEW005 SCT015 BKN035 22/17 Q1013

More Conditions Fewer Conditions

10-Day Weather Forecast

Almanac

Astronomy

Aug. 30, 2014 Rise Set
Actual Time 5:30 AM JST 6:31 PM JST
Civil Twilight 5:04 AM JST 6:57 PM JST
Nautical Twilight 4:33 AM JST 7:28 PM JST
Astronomical Twilight 4:01 AM JST 8:00 PM JST
Moon 9:32 AM JST 8:53 PM JST
Length of Visible Light 13h 52m
Length of Day
13h 00m
Tomorrow will be 2m 8s shorter.
Waxing Crescent, 20% of the Moon is Illuminated
Today
Waxing Crescent
Sep 2
First Quarter
Sep 8
Full
Sep 15
Last Quarter
Sep 24
New

Yesterday's Extremes

Country Highs Country Lows

Community

WunderPhotos

Upload Photos

1,748,468 photos uploaded!

Nearby

Snow Depth

Not available.

Earthquake Activity

City Distance Mag. Time & Date
No recent earthquake activity has been reported nearby.
Minimum magnitude displayed is 2.5.

Coastal Water Temperatures

Place Temperature
No Stations Reporting

Nearby Weather Stations